sensor_id;sensor_type;location;lat;lon;timestamp;pressure;altitude;pressure_sealevel;temperature;humidity
78573;BME280;67862;0.000;0.000;2023-05-19T00:01:07;99737.16;;;22.09;73.29
78573;BME280;67862;0.000;0.000;2023-05-19T00:03:33;99741.81;;;22.08;73.56
78573;BME280;67862;0.000;0.000;2023-05-19T00:06:00;99748.09;;;22.09;73.17
78573;BME280;67862;0.000;0.000;2023-05-19T00:08:26;99750.03;;;22.08;73.17
78573;BME280;67862;0.000;0.000;2023-05-19T00:10:54;99754.13;;;22.11;73.15
78573;BME280;67862;0.000;0.000;2023-05-19T00:13:19;99751.41;;;22.11;72.83
78573;BME280;67862;0.000;0.000;2023-05-19T00:15:45;99746.75;;;22.11;73.18
78573;BME280;67862;0.000;0.000;2023-05-19T00:18:10;99744.00;;;22.11;73.19
78573;BME280;67862;0.000;0.000;2023-05-19T00:20:38;99748.66;;;22.11;73.35
78573;BME280;67862;0.000;0.000;2023-05-19T00:23:03;99741.81;;;22.08;73.22
78573;BME280;67862;0.000;0.000;2023-05-19T00:25:29;99745.94;;;22.11;72.73
78573;BME280;67862;0.000;0.000;2023-05-19T00:27:54;99743.19;;;22.11;72.81
78573;BME280;67862;0.000;0.000;2023-05-19T00:30:20;99739.91;;;22.09;72.94
78573;BME280;67862;0.000;0.000;2023-05-19T00:32:47;99738.00;;;22.09;72.48
78573;BME280;67862;0.000;0.000;2023-05-19T00:35:12;99741.53;;;22.05;72.67
78573;BME280;67862;0.000;0.000;2023-05-19T00:37:37;99736.66;;;22.02;72.55
78573;BME280;67862;0.000;0.000;2023-05-19T00:40:03;99738.53;;;22.06;73.25
78573;BME280;67862;0.000;0.000;2023-05-19T00:42:30;99738.28;;;22.03;73.26
78573;BME280;67862;0.000;0.000;2023-05-19T00:44:56;99739.09;;;22.03;73.22
78573;BME280;67862;0.000;0.000;2023-05-19T00:47:22;99740.19;;;22.02;72.71
78573;BME280;67862;0.000;0.000;2023-05-19T00:49:47;99733.34;;;22.05;72.85
78573;BME280;67862;0.000;0.000;2023-05-19T00:52:12;99732.25;;;22.06;72.77
78573;BME280;67862;0.000;0.000;2023-05-19T00:54:38;99728.97;;;22.04;73.16
78573;BME280;67862;0.000;0.000;2023-05-19T00:57:03;99721.34;;;22.00;72.93
78573;BME280;67862;0.000;0.000;2023-05-19T00:59:28;99724.59;;;22.08;73.16
78573;BME280;67862;0.000;0.000;2023-05-19T01:04:28;99711.47;;;21.99;73.17
78573;BME280;67862;0.000;0.000;2023-05-19T01:06:58;99720.25;;;22.02;73.28
78573;BME280;67862;0.000;0.000;2023-05-19T01:09:24;99716.94;;;22.05;73.41
78573;BME280;67862;0.000;0.000;2023-05-19T01:11:49;99712.31;;;22.00;73.02
78573;BME280;67862;0.000;0.000;2023-05-19T01:14:15;99702.22;;;22.00;73.26
78573;BME280;67862;0.000;0.000;2023-05-19T01:22:18;99691.81;;;21.97;73.38
78573;BME280;67862;0.000;0.000;2023-05-19T01:27:33;99707.94;;;22.04;73.43
78573;BME280;67862;0.000;0.000;2023-05-19T01:32:40;99715.59;;;22.02;72.50
78573;BME280;67862;0.000;0.000;2023-05-19T01:35:06;99721.06;;;22.02;72.56
78573;BME280;67862;0.000;0.000;2023-05-19T01:37:33;99721.34;;;22.00;73.09
78573;BME280;67862;0.000;0.000;2023-05-19T01:39:59;99723.25;;;22.00;73.02
78573;BME280;67862;0.000;0.000;2023-05-19T01:42:25;99716.13;;;21.99;73.00
78573;BME280;67862;0.000;0.000;2023-05-19T01:44:51;99722.41;;;21.99;73.13
78573;BME280;67862;0.000;0.000;2023-05-19T01:47:17;99719.69;;;21.99;73.12
78573;BME280;67862;0.000;0.000;2023-05-19T01:49:43;99721.59;;;21.99;73.42
78573;BME280;67862;0.000;0.000;2023-05-19T01:52:08;99720.78;;;21.98;72.54
78573;BME280;67862;0.000;0.000;2023-05-19T01:54:34;99727.88;;;21.99;72.59
78573;BME280;67862;0.000;0.000;2023-05-19T01:57:03;99726.81;;;22.00;72.99
78573;BME280;67862;0.000;0.000;2023-05-19T02:02:38;99727.88;;;21.99;72.59
78573;BME280;67862;0.000;0.000;2023-05-19T02:08:01;99727.06;;;21.99;73.31
78573;BME280;67862;0.000;0.000;2023-05-19T02:10:30;99735.53;;;22.08;73.22
78573;BME280;67862;0.000;0.000;2023-05-19T02:12:58;99737.72;;;22.06;72.89
78573;BME280;67862;0.000;0.000;2023-05-19T02:15:27;99741.31;;;22.01;72.48
78573;BME280;67862;0.000;0.000;2023-05-19T02:17:54;99730.91;;;21.98;73.13
78573;BME280;67862;0.000;0.000;2023-05-19T02:20:19;99733.94;;;21.96;73.24
78573;BME280;67862;0.000;0.000;2023-05-19T02:22:46;99733.63;;;21.98;73.51
78573;BME280;67862;0.000;0.000;2023-05-19T02:25:11;99731.72;;;21.98;73.19
78573;BME280;67862;0.000;0.000;2023-05-19T02:27:37;99737.19;;;21.98;73.14
78573;BME280;67862;0.000;0.000;2023-05-19T02:30:05;99731.72;;;21.98;73.58
78573;BME280;67862;0.000;0.000;2023-05-19T02:32:37;99722.19;;;21.96;73.30
78573;BME280;67862;0.000;0.000;2023-05-19T02:35:02;99728.47;;;21.96;72.94
78573;BME280;67862;0.000;0.000;2023-05-19T02:37:28;99718.03;;;22.04;73.38
78573;BME280;67862;0.000;0.000;2023-05-19T02:40:01;99721.59;;;21.99;73.27
78573;BME280;67862;0.000;0.000;2023-05-19T02:42:26;99721.88;;;21.97;73.25
78573;BME280;67862;0.000;0.000;2023-05-19T02:44:53;99715.91;;;21.95;73.37
78573;BME280;67862;0.000;0.000;2023-05-19T02:47:18;99713.16;;;21.95;73.45
78573;BME280;67862;0.000;0.000;2023-05-19T02:49:44;99712.06;;;21.96;73.07
78573;BME280;67862;0.000;0.000;2023-05-19T02:52:09;99715.91;;;21.95;72.68
78573;BME280;67862;0.000;0.000;2023-05-19T02:54:36;99718.09;;;21.93;73.04
78573;BME280;67862;0.000;0.000;2023-05-19T02:57:01;99713.44;;;21.94;72.97
78573;BME280;67862;0.000;0.000;2023-05-19T02:59:27;99715.91;;;21.95;72.53
78573;BME280;67862;0.000;0.000;2023-05-19T03:01:57;99720.00;;;21.93;72.66
78573;BME280;67862;0.000;0.000;2023-05-19T03:04:26;99722.47;;;21.94;72.66
78573;BME280;67862;0.000;0.000;2023-05-19T03:06:52;99721.34;;;22.00;72.81
78573;BME280;67862;0.000;0.000;2023-05-19T03:09:18;99713.16;;;22.00;73.10
78573;BME280;67862;0.000;0.000;2023-05-19T03:11:43;99713.16;;;22.00;72.80
78573;BME280;67862;0.000;0.000;2023-05-19T03:14:09;99717.81;;;21.95;72.32
78573;BME280;67862;0.000;0.000;2023-05-19T03:16:34;99720.00;;;21.93;72.98
78573;BME280;67862;0.000;0.000;2023-05-19T03:19:00;99723.28;;;21.95;73.13
78573;BME280;67862;0.000;0.000;2023-05-19T03:21:25;99724.91;;;21.96;73.15
78573;BME280;67862;0.000;0.000;2023-05-19T03:23:51;99726.53;;;21.97;72.97
78573;BME280;67862;0.000;0.000;2023-05-19T03:26:16;99726.28;;;21.93;72.55
78573;BME280;67862;0.000;0.000;2023-05-19T03:28:42;99739.16;;;21.93;72.87
78573;BME280;67862;0.000;0.000;2023-05-19T03:31:07;99732.59;;;21.94;73.22
78573;BME280;67862;0.000;0.000;2023-05-19T03:33:33;99733.41;;;21.94;72.64
78573;BME280;67862;0.000;0.000;2023-05-19T03:35:58;99737.75;;;22.00;73.10
78573;BME280;67862;0.000;0.000;2023-05-19T03:38:23;99733.91;;;22.02;72.21
78573;BME280;67862;0.000;0.000;2023-05-19T03:40:49;99738.28;;;22.03;72.68
78573;BME280;67862;0.000;0.000;2023-05-19T03:43:14;99741.84;;;22.03;72.25
78573;BME280;67862;0.000;0.000;2023-05-19T03:45:42;99738.53;;;22.06;72.56
78573;BME280;67862;0.000;0.000;2023-05-19T03:48:08;99742.63;;;22.09;72.21
78573;BME280;67862;0.000;0.000;2023-05-19T03:50:33;99735.81;;;22.11;72.08
78573;BME280;67862;0.000;0.000;2023-05-19T03:52:59;99736.06;;;22.15;72.83
78573;BME280;67862;0.000;0.000;2023-05-19T03:55:24;99731.13;;;22.17;72.50
78573;BME280;67862;0.000;0.000;2023-05-19T03:57:50;99728.38;;;22.17;72.35
78573;BME280;67862;0.000;0.000;2023-05-19T04:00:16;99732.47;;;22.19;72.58
78573;BME280;67862;0.000;0.000;2023-05-19T04:02:42;99734.94;;;22.21;71.98
78573;BME280;67862;0.000;0.000;2023-05-19T04:05:07;99733.84;;;22.22;72.36
78573;BME280;67862;0.000;0.000;2023-05-19T04:07:33;99736.00;;;22.25;71.96
78573;BME280;67862;0.000;0.000;2023-05-19T04:09:59;99735.19;;;22.24;72.29
78573;BME280;67862;0.000;0.000;2023-05-19T04:12:24;99739.53;;;22.25;71.94
78573;BME280;67862;0.000;0.000;2023-05-19T04:14:49;99752.41;;;22.25;72.07
78573;BME280;67862;0.000;0.000;2023-05-19T04:17:15;99749.09;;;22.28;72.00
78573;BME280;67862;0.000;0.000;2023-05-19T04:19:40;99743.09;;;22.31;71.59
78573;BME280;67862;0.000;0.000;2023-05-19T04:22:09;99747.19;;;22.28;71.95
78573;BME280;67862;0.000;0.000;2023-05-19T04:24:35;99747.69;;;22.36;71.90
78573;BME280;67862;0.000;0.000;2023-05-19T04:27:00;99750.72;;;22.34;71.79
78573;BME280;67862;0.000;0.000;2023-05-19T04:29:27;99746.84;;;22.40;72.14
78573;BME280;67862;0.000;0.000;2023-05-19T04:31:53;99753.44;;;22.39;72.16
78573;BME280;67862;0.000;0.000;2023-05-19T04:34:21;99762.19;;;22.36;72.04
78573;BME280;67862;0.000;0.000;2023-05-19T04:36:50;99763.53;;;22.39;71.89
78573;BME280;67862;0.000;0.000;2023-05-19T04:39:15;99770.38;;;22.36;72.17
78573;BME280;67862;0.000;0.000;2023-05-19T04:41:40;99772.03;;;22.37;71.50
78573;BME280;67862;0.000;0.000;2023-05-19T04:44:08;99772.31;;;22.36;71.84
78573;BME280;67862;0.000;0.000;2023-05-19T04:46:37;99774.47;;;22.39;72.26
78573;BME280;67862;0.000;0.000;2023-05-19T04:49:02;99779.69;;;22.40;71.82
78573;BME280;67862;0.000;0.000;2023-05-19T05:03:51;99780.16;;;22.47;71.42
78573;BME280;67862;0.000;0.000;2023-05-19T05:06:20;99773.88;;;22.52;71.31
78573;BME280;67862;0.000;0.000;2023-05-19T05:08:48;99775.44;;;22.58;71.46
78573;BME280;67862;0.000;0.000;2023-05-19T05:11:16;99779.03;;;22.59;71.52
78573;BME280;67862;0.000;0.000;2023-05-19T05:13:42;99783.13;;;22.56;71.60
78573;BME280;67862;0.000;0.000;2023-05-19T05:16:07;99774.97;;;22.46;71.47
78573;BME280;67862;0.000;0.000;2023-05-19T05:18:33;99773.59;;;22.48;71.13
78573;BME280;67862;0.000;0.000;2023-05-19T05:21:00;99774.16;;;22.45;70.74
78573;BME280;67862;0.000;0.000;2023-05-19T05:23:29;99779.34;;;22.47;70.24
78573;BME280;67862;0.000;0.000;2023-05-19T05:25:54;99775.28;;;22.44;70.24
78573;BME280;67862;0.000;0.000;2023-05-19T05:28:20;99788.13;;;22.44;70.69
78573;BME280;67862;0.000;0.000;2023-05-19T05:30:45;99786.50;;;22.43;70.01
78573;BME280;67862;0.000;0.000;2023-05-19T05:33:11;99785.41;;;22.44;70.25
78573;BME280;67862;0.000;0.000;2023-05-19T05:35:38;99781.03;;;22.43;69.74
78573;BME280;67862;0.000;0.000;2023-05-19T05:38:04;99786.78;;;22.41;69.66
78573;BME280;67862;0.000;0.000;2023-05-19T05:40:29;99787.91;;;22.40;69.67
78573;BME280;67862;0.000;0.000;2023-05-19T05:42:55;99785.97;;;22.41;69.67
78573;BME280;67862;0.000;0.000;2023-05-19T05:45:23;99789.81;;;22.40;69.72
78573;BME280;67862;0.000;0.000;2023-05-19T05:47:50;99789.53;;;22.41;69.42
78573;BME280;67862;0.000;0.000;2023-05-19T05:50:17;99791.16;;;22.42;69.82
78573;BME280;67862;0.000;0.000;2023-05-19T05:52:49;99786.91;;;22.21;61.23
78573;BME280;67862;0.000;0.000;2023-05-19T05:55:17;99794.34;;;22.10;62.63
78573;BME280;67862;0.000;0.000;2023-05-19T05:57:43;99794.00;;;22.22;69.25
78573;BME280;67862;0.000;0.000;2023-05-19T06:00:08;99793.97;;;22.27;67.18
78573;BME280;67862;0.000;0.000;2023-05-19T06:02:45;99798.06;;;22.30;67.88
78573;BME280;67862;0.000;0.000;2023-05-19T06:05:27;99796.41;;;22.34;67.58
78573;BME280;67862;0.000;0.000;2023-05-19T06:07:52;99802.69;;;22.34;66.98
78573;BME280;67862;0.000;0.000;2023-05-19T06:10:18;99807.63;;;22.32;67.29
78573;BME280;67862;0.000;0.000;2023-05-19T06:12:43;99803.78;;;22.33;67.44
78573;BME280;67862;0.000;0.000;2023-05-19T06:15:09;99800.22;;;22.33;67.25
78573;BME280;67862;0.000;0.000;2023-05-19T06:17:35;99808.72;;;22.31;67.58
78573;BME280;67862;0.000;0.000;2023-05-19T06:20:01;99810.38;;;22.32;67.50
78573;BME280;67862;0.000;0.000;2023-05-19T06:22:26;99818.56;;;22.32;67.47
78573;BME280;67862;0.000;0.000;2023-05-19T06:24:52;99824.84;;;22.33;67.29
78573;BME280;67862;0.000;0.000;2023-05-19T06:27:18;99827.59;;;22.33;67.56
78573;BME280;67862;0.000;0.000;2023-05-19T06:29:43;99831.13;;;22.33;67.13
78573;BME280;67862;0.000;0.000;2023-05-19T06:32:08;99834.16;;;22.32;67.54
78573;BME280;67862;0.000;0.000;2023-05-19T06:34:34;99838.81;;;22.31;67.23
78573;BME280;67862;0.000;0.000;2023-05-19T06:36:59;99840.44;;;22.32;67.25
78573;BME280;67862;0.000;0.000;2023-05-19T06:39:26;99830.91;;;22.30;67.50
78573;BME280;67862;0.000;0.000;2023-05-19T06:41:52;99838.00;;;22.31;67.41
78573;BME280;67862;0.000;0.000;2023-05-19T06:44:17;99834.16;;;22.32;67.63
78573;BME280;67862;0.000;0.000;2023-05-19T06:46:42;99837.72;;;22.32;67.20
78573;BME280;67862;0.000;0.000;2023-05-19T06:49:08;99837.19;;;22.30;67.25
78573;BME280;67862;0.000;0.000;2023-05-19T06:51:33;99839.91;;;22.30;67.27
78573;BME280;67862;0.000;0.000;2023-05-19T06:53:59;99847.56;;;22.33;67.51
78573;BME280;67862;0.000;0.000;2023-05-19T06:56:24;99849.75;;;22.31;67.48
78573;BME280;67862;0.000;0.000;2023-05-19T06:58:50;99844.28;;;22.31;67.80
78573;BME280;67862;0.000;0.000;2023-05-19T07:01:15;99838.81;;;22.31;67.67
78573;BME280;67862;0.000;0.000;2023-05-19T07:03:41;99848.94;;;22.31;67.35
78573;BME280;67862;0.000;0.000;2023-05-19T07:06:06;99841.56;;;22.31;67.33
78573;BME280;67862;0.000;0.000;2023-05-19T07:08:31;99845.09;;;22.32;67.07
78573;BME280;67862;0.000;0.000;2023-05-19T07:10:57;99834.97;;;22.32;67.33
78573;BME280;67862;0.000;0.000;2023-05-19T07:13:22;99830.59;;;22.31;67.25
78573;BME280;67862;0.000;0.000;2023-05-19T07:15:48;99835.53;;;22.29;67.63
78573;BME280;67862;0.000;0.000;2023-05-19T07:18:14;99833.88;;;22.28;66.85
78573;BME280;67862;0.000;0.000;2023-05-19T07:20:39;99830.06;;;22.29;66.90
78573;BME280;67862;0.000;0.000;2023-05-19T07:23:04;99820.22;;;22.28;66.42
78573;BME280;67862;0.000;0.000;2023-05-19T07:25:30;99822.94;;;22.28;66.74
78573;BME280;67862;0.000;0.000;2023-05-19T07:27:55;99819.69;;;22.26;66.34
78573;BME280;67862;0.000;0.000;2023-05-19T07:30:21;99823.50;;;22.25;66.50
78573;BME280;67862;0.000;0.000;2023-05-19T07:32:46;99828.97;;;22.25;66.19
78573;BME280;67862;0.000;0.000;2023-05-19T07:35:11;99822.94;;;22.28;65.88
78573;BME280;67862;0.000;0.000;2023-05-19T07:37:37;99828.69;;;22.26;65.25
78573;BME280;67862;0.000;0.000;2023-05-19T07:40:03;99827.34;;;22.24;65.41
78573;BME280;67862;0.000;0.000;2023-05-19T07:42:28;99829.84;;;22.20;65.91
78573;BME280;67862;0.000;0.000;2023-05-19T07:44:57;99827.09;;;22.20;65.84
78573;BME280;67862;0.000;0.000;2023-05-19T07:47:22;99824.91;;;22.22;65.23
78573;BME280;67862;0.000;0.000;2023-05-19T07:49:48;99830.09;;;22.24;64.89
78573;BME280;67862;0.000;0.000;2023-05-19T07:52:13;99828.44;;;22.23;64.81
78573;BME280;67862;0.000;0.000;2023-05-19T07:54:42;99827.63;;;22.22;64.64
78573;BME280;67862;0.000;0.000;2023-05-19T07:57:08;99825.72;;;22.23;65.01
78573;BME280;67862;0.000;0.000;2023-05-19T07:59:33;99827.63;;;22.22;65.08
78573;BME280;67862;0.000;0.000;2023-05-19T08:01:58;99826.53;;;22.18;64.82
78573;BME280;67862;0.000;0.000;2023-05-19T08:04:24;99834.22;;;22.16;63.85
78573;BME280;67862;0.000;0.000;2023-05-19T08:06:49;99830.66;;;22.16;64.84
78573;BME280;67862;0.000;0.000;2023-05-19T08:09:16;99829.84;;;22.15;64.15
78573;BME280;67862;0.000;0.000;2023-05-19T08:11:41;99825.75;;;22.13;63.58
78573;BME280;67862;0.000;0.000;2023-05-19T08:14:07;99831.22;;;22.13;63.36
78573;BME280;67862;0.000;0.000;2023-05-19T08:16:32;99826.03;;;22.11;63.40
78573;BME280;67862;0.000;0.000;2023-05-19T08:18:57;99833.44;;;22.11;63.26
78573;BME280;67862;0.000;0.000;2023-05-19T08:21:26;99833.16;;;22.12;63.23
78573;BME280;67862;0.000;0.000;2023-05-19T08:23:52;99829.59;;;22.12;63.25
78573;BME280;67862;0.000;0.000;2023-05-19T08:26:17;99815.63;;;22.13;63.19
78573;BME280;67862;0.000;0.000;2023-05-19T08:28:43;99827.69;;;22.12;62.63
78573;BME280;67862;0.000;0.000;2023-05-19T08:31:08;99830.41;;;22.12;62.80
78573;BME280;67862;0.000;0.000;2023-05-19T08:33:33;99830.69;;;22.11;62.85
78573;BME280;67862;0.000;0.000;2023-05-19T08:35:59;99826.03;;;22.11;62.57
78573;BME280;67862;0.000;0.000;2023-05-19T08:38:24;99829.59;;;22.12;62.00
78573;BME280;67862;0.000;0.000;2023-05-19T08:40:50;99831.22;;;22.13;62.31
78573;BME280;67862;0.000;0.000;2023-05-19T08:43:16;99822.50;;;22.11;62.06
78573;BME280;67862;0.000;0.000;2023-05-19T08:45:42;99821.94;;;22.14;61.93
78573;BME280;67862;0.000;0.000;2023-05-19T08:48:07;99814.25;;;22.16;61.84
78573;BME280;67862;0.000;0.000;2023-05-19T08:50:34;99821.66;;;22.15;61.90
78573;BME280;67862;0.000;0.000;2023-05-19T08:57:52;99817.56;;;22.13;62.25
78573;BME280;67862;0.000;0.000;2023-05-19T09:00:18;99820.28;;;22.13;62.50
78573;BME280;67862;0.000;0.000;2023-05-19T09:02:44;99824.66;;;22.14;62.36
78573;BME280;67862;0.000;0.000;2023-05-19T09:05:11;99817.56;;;22.13;62.22
78573;BME280;67862;0.000;0.000;2023-05-19T09:07:37;99817.03;;;22.11;62.44
78573;BME280;67862;0.000;0.000;2023-05-19T09:10:02;99822.50;;;22.11;62.58
78573;BME280;67862;0.000;0.000;2023-05-19T09:12:28;99820.00;;;22.09;61.92
78573;BME280;67862;0.000;0.000;2023-05-19T09:14:54;99824.66;;;22.09;61.65
78573;BME280;67862;0.000;0.000;2023-05-19T09:17:20;99821.13;;;22.08;61.68
78573;BME280;67862;0.000;0.000;2023-05-19T09:19:47;99823.56;;;22.10;61.69
78573;BME280;67862;0.000;0.000;2023-05-19T09:22:15;99822.22;;;22.12;61.46
78573;BME280;67862;0.000;0.000;2023-05-19T09:24:44;99809.63;;;22.11;61.73
78573;BME280;67862;0.000;0.000;2023-05-19T09:27:12;99808.00;;;22.10;61.68
78573;BME280;67862;0.000;0.000;2023-05-19T09:29:39;99798.13;;;22.09;61.68
78573;BME280;67862;0.000;0.000;2023-05-19T09:32:05;99800.88;;;22.09;61.58
78573;BME280;67862;0.000;0.000;2023-05-19T09:34:31;99807.16;;;22.10;61.05
78573;BME280;67862;0.000;0.000;2023-05-19T09:36:57;99809.06;;;22.09;61.37
78573;BME280;67862;0.000;0.000;2023-05-19T09:39:24;99806.09;;;22.11;61.10
78573;BME280;67862;0.000;0.000;2023-05-19T09:41:50;99803.06;;;22.12;60.96
78573;BME280;67862;0.000;0.000;2023-05-19T09:44:24;99801.44;;;22.11;61.25
78573;BME280;67862;0.000;0.000;2023-05-19T09:46:54;99800.06;;;22.09;60.96
78573;BME280;67862;0.000;0.000;2023-05-19T09:49:23;99801.16;;;22.08;61.07
78573;BME280;67862;0.000;0.000;2023-05-19T09:51:52;99798.13;;;22.09;61.11
78573;BME280;67862;0.000;0.000;2023-05-19T09:54:19;99803.59;;;22.09;60.86
78573;BME280;67862;0.000;0.000;2023-05-19T09:56:44;99803.59;;;22.09;60.56
78573;BME280;67862;0.000;0.000;2023-05-19T09:59:09;99797.88;;;22.11;60.80
78573;BME280;67862;0.000;0.000;2023-05-19T10:01:36;99796.78;;;22.12;60.78
78573;BME280;67862;0.000;0.000;2023-05-19T10:04:05;99800.63;;;22.11;60.85
78573;BME280;67862;0.000;0.000;2023-05-19T10:06:30;99791.59;;;22.10;60.79
78573;BME280;67862;0.000;0.000;2023-05-19T10:08:55;99794.88;;;22.07;60.75
78573;BME280;67862;0.000;0.000;2023-05-19T10:11:22;99794.34;;;22.10;60.71
78573;BME280;67862;0.000;0.000;2023-05-19T10:13:49;99786.66;;;22.12;60.10
78573;BME280;67862;0.000;0.000;2023-05-19T10:16:15;99783.41;;;22.10;60.56
78573;BME280;67862;0.000;0.000;2023-05-19T10:18:41;99779.81;;;22.10;60.49
78573;BME280;67862;0.000;0.000;2023-05-19T10:21:06;99781.47;;;22.11;60.53
78573;BME280;67862;0.000;0.000;2023-05-19T10:23:32;99778.75;;;22.11;60.55
78573;BME280;67862;0.000;0.000;2023-05-19T10:25:58;99775.19;;;22.10;60.26
78573;BME280;67862;0.000;0.000;2023-05-19T10:28:26;99777.09;;;22.10;60.43
78573;BME280;67862;0.000;0.000;2023-05-19T10:30:56;99767.53;;;22.07;60.17
78573;BME280;67862;0.000;0.000;2023-05-19T10:33:25;99773.81;;;22.08;59.96
78573;BME280;67862;0.000;0.000;2023-05-19T10:38:44;99762.88;;;22.08;60.39
78573;BME280;67862;0.000;0.000;2023-05-19T10:41:15;99759.84;;;22.09;59.17
78573;BME280;67862;0.000;0.000;2023-05-19T10:46:17;99750.84;;;22.09;59.44
78573;BME280;67862;0.000;0.000;2023-05-19T10:48:45;99751.41;;;22.11;59.72
78573;BME280;67862;0.000;0.000;2023-05-19T10:51:10;99749.75;;;22.10;59.41
78573;BME280;67862;0.000;0.000;2023-05-19T10:53:39;99748.66;;;22.11;59.73
78573;BME280;67862;0.000;0.000;2023-05-19T10:56:04;99752.22;;;22.11;59.16
78573;BME280;67862;0.000;0.000;2023-05-19T10:58:35;99749.19;;;22.13;59.12
78573;BME280;67862;0.000;0.000;2023-05-19T11:01:01;99757.13;;;22.14;59.63
78573;BME280;67862;0.000;0.000;2023-05-19T11:03:26;99746.47;;;22.13;59.59
78573;BME280;67862;0.000;0.000;2023-05-19T11:06:15;99747.56;;;22.12;59.40
78573;BME280;67862;0.000;0.000;2023-05-19T11:08:38;99746.75;;;22.11;59.70
78573;BME280;67862;0.000;0.000;2023-05-19T11:11:16;99748.66;;;22.11;59.40
78573;BME280;67862;0.000;0.000;2023-05-19T11:13:54;99736.63;;;22.12;59.32
78573;BME280;67862;0.000;0.000;2023-05-19T11:16:30;99738.25;;;22.13;59.34
78573;BME280;67862;0.000;0.000;2023-05-19T11:18:57;99729.78;;;22.14;59.37
78573;BME280;67862;0.000;0.000;2023-05-19T11:24:08;99737.44;;;22.12;59.92
78573;BME280;67862;0.000;0.000;2023-05-19T11:26:40;99738.25;;;22.13;59.75
78573;BME280;67862;0.000;0.000;2023-05-19T11:29:09;99727.84;;;22.15;60.06
78573;BME280;67862;0.000;0.000;2023-05-19T11:31:34;99734.66;;;22.17;59.49
78573;BME280;67862;0.000;0.000;2023-05-19T11:34:00;99730.56;;;22.20;59.55
78573;BME280;67862;0.000;0.000;2023-05-19T11:36:26;99730.00;;;22.18;59.51
78573;BME280;67862;0.000;0.000;2023-05-19T11:38:55;99737.13;;;22.19;59.71
78573;BME280;67862;0.000;0.000;2023-05-19T11:41:21;99730.28;;;22.21;59.90
78573;BME280;67862;0.000;0.000;2023-05-19T11:43:47;99721.53;;;22.19;59.80
78573;BME280;67862;0.000;0.000;2023-05-19T11:46:15;99723.44;;;22.19;59.34
78573;BME280;67862;0.000;0.000;2023-05-19T11:48:40;99713.31;;;22.19;59.14
78573;BME280;67862;0.000;0.000;2023-05-19T11:51:05;99717.16;;;22.18;59.33
78573;BME280;67862;0.000;0.000;2023-05-19T11:53:31;99712.25;;;22.20;59.24
78573;BME280;67862;0.000;0.000;2023-05-19T11:56:02;99723.19;;;22.20;59.02
78573;BME280;67862;0.000;0.000;2023-05-19T11:58:27;99718.53;;;22.21;59.23
78573;BME280;67862;0.000;0.000;2023-05-19T12:00:53;99720.44;;;22.20;59.56
78573;BME280;67862;0.000;0.000;2023-05-19T12:03:21;99715.25;;;22.19;59.78
78573;BME280;67862;0.000;0.000;2023-05-19T12:05:51;99716.91;;;22.20;59.55
78573;BME280;67862;0.000;0.000;2023-05-19T12:08:17;99705.69;;;22.21;58.85
78573;BME280;67862;0.000;0.000;2023-05-19T12:10:43;99709.50;;;22.20;58.79
78573;BME280;67862;0.000;0.000;2023-05-19T12:13:11;99715.81;;;22.21;59.12
78573;BME280;67862;0.000;0.000;2023-05-19T12:15:37;99715.50;;;22.22;58.88
78573;BME280;67862;0.000;0.000;2023-05-19T12:18:02;99706.44;;;22.27;58.65
78573;BME280;67862;0.000;0.000;2023-05-19T12:20:28;99714.13;;;22.25;58.82
78573;BME280;67862;0.000;0.000;2023-05-19T12:22:56;99709.47;;;22.25;58.40
78573;BME280;67862;0.000;0.000;2023-05-19T12:25:22;99705.38;;;22.23;58.95
78573;BME280;67862;0.000;0.000;2023-05-19T12:27:49;99705.38;;;22.23;59.54
78573;BME280;67862;0.000;0.000;2023-05-19T12:30:16;99693.63;;;22.22;59.48
78573;BME280;67862;0.000;0.000;2023-05-19T12:32:42;99696.09;;;22.19;59.19
78573;BME280;67862;0.000;0.000;2023-05-19T12:35:08;99696.09;;;22.19;58.91
78573;BME280;67862;0.000;0.000;2023-05-19T12:37:33;99692.28;;;22.20;58.67
78573;BME280;67862;0.000;0.000;2023-05-19T12:40:01;99692.00;;;22.21;58.43
78573;BME280;67862;0.000;0.000;2023-05-19T12:42:28;99689.25;;;22.21;58.53
78573;BME280;67862;0.000;0.000;2023-05-19T12:44:55;99689.78;;;22.23;58.53
78573;BME280;67862;0.000;0.000;2023-05-19T12:47:21;99694.44;;;22.23;58.43
78573;BME280;67862;0.000;0.000;2023-05-19T12:49:53;99683.22;;;22.24;58.76
78573;BME280;67862;0.000;0.000;2023-05-19T12:52:20;99675.59;;;22.21;59.01
78573;BME280;67862;0.000;0.000;2023-05-19T12:54:47;99684.91;;;22.20;58.67
78573;BME280;67862;0.000;0.000;2023-05-19T12:57:14;99678.03;;;22.23;58.30
78573;BME280;67862;0.000;0.000;2023-05-19T12:59:41;99684.91;;;22.20;58.08
78573;BME280;67862;0.000;0.000;2023-05-19T13:02:06;99683.53;;;22.18;58.31
78573;BME280;67862;0.000;0.000;2023-05-19T13:04:32;99672.31;;;22.19;58.61
78573;BME280;67862;0.000;0.000;2023-05-19T13:06:57;99676.41;;;22.22;58.68
78573;BME280;67862;0.000;0.000;2023-05-19T13:09:22;99675.00;;;22.24;58.24
78573;BME280;67862;0.000;0.000;2023-05-19T13:11:48;99667.09;;;22.23;57.82
78573;BME280;67862;0.000;0.000;2023-05-19T13:14:15;99667.63;;;22.25;57.54
78573;BME280;67862;0.000;0.000;2023-05-19T13:16:42;99661.63;;;22.23;57.75
78573;BME280;67862;0.000;0.000;2023-05-19T13:19:08;99664.06;;;22.24;57.85
78573;BME280;67862;0.000;0.000;2023-05-19T13:21:33;99666.28;;;22.22;58.23
78573;BME280;67862;0.000;0.000;2023-05-19T13:23:59;99666.56;;;22.21;57.75
78573;BME280;67862;0.000;0.000;2023-05-19T13:26:28;99651.53;;;22.18;57.96
78573;BME280;67862;0.000;0.000;2023-05-19T13:28:57;99658.91;;;22.18;57.39
78573;BME280;67862;0.000;0.000;2023-05-19T13:31:22;99655.06;;;22.19;57.41
78573;BME280;67862;0.000;0.000;2023-05-19T13:33:47;99657.81;;;22.19;57.67
78573;BME280;67862;0.000;0.000;2023-05-19T13:36:13;99646.63;;;22.20;57.28
78573;BME280;67862;0.000;0.000;2023-05-19T13:38:38;99648.25;;;22.21;57.43
78573;BME280;67862;0.000;0.000;2023-05-19T13:41:05;99646.84;;;22.24;57.03
78573;BME280;67862;0.000;0.000;2023-05-19T13:43:31;99643.81;;;22.25;57.27
78573;BME280;67862;0.000;0.000;2023-05-19T13:46:00;99643.53;;;22.27;56.99
78573;BME280;67862;0.000;0.000;2023-05-19T13:48:25;99641.63;;;22.27;56.66
78573;BME280;67862;0.000;0.000;2023-05-19T13:50:53;99640.25;;;22.30;56.14